Time;durP1;ratioP1;P1;durP2;ratioP2;P2;SDS_P1;SDS_P2;PMS_P1;PMS_P2;Temp;Humidity;BMP_temperature;BMP_pressure;BME280_temperature;BME280_humidity;BME280_pressure;Samples;Min_cycle;Max_cycle;Signal;HPM_P1;HPM_P2
2022/05/06 00:01:27;;;;;;;33.33;21.60;;;12.30;99.90;;;;;;4942799;28;20479;-71
2022/05/06 00:03:53;;;;;;;35.00;23.77;;;12.30;99.90;;;;;;4944522;29;20184;-71
2022/05/06 00:06:20;;;;;;;33.40;21.00;;;12.30;99.90;;;;;;4945110;29;20515;-71
2022/05/06 00:08:46;;;;;;;32.27;22.13;;;12.20;99.90;;;;;;4952807;28;20935;-71
2022/05/06 00:11:11;;;;;;;32.60;21.63;;;12.30;99.90;;;;;;4936852;29;20441;-71
2022/05/06 00:13:37;;;;;;;35.43;22.10;;;12.30;99.90;;;;;;4946362;28;20926;-70
2022/05/06 00:16:06;;;;;;;35.07;21.47;;;12.30;99.90;;;;;;4937091;29;20189;-70
2022/05/06 00:18:31;;;;;;;30.90;22.73;;;12.30;99.90;;;;;;4952032;29;20665;-71
2022/05/06 00:21:00;;;;;;;36.87;22.40;;;12.30;99.90;;;;;;4944524;29;20475;-70
2022/05/06 00:23:25;;;;;;;33.40;21.90;;;12.30;99.90;;;;;;4928889;29;20287;-70
2022/05/06 00:25:51;;;;;;;41.63;23.50;;;12.30;99.90;;;;;;4943504;29;20991;-70
2022/05/06 00:28:17;;;;;;;31.83;21.50;;;12.30;99.90;;;;;;4945252;28;20587;-70
2022/05/06 00:30:43;;;;;;;33.23;22.13;;;12.30;99.90;;;;;;4944657;28;20212;-70
2022/05/06 00:33:09;;;;;;;36.60;22.10;;;12.30;99.90;;;;;;4935671;29;20193;-71
2022/05/06 00:35:38;;;;;;;35.70;23.87;;;12.30;99.90;;;;;;4935842;29;20594;-71
2022/05/06 00:38:04;;;;;;;39.90;23.57;;;12.30;99.90;;;;;;4935493;29;20417;-70
2022/05/06 00:40:30;;;;;;;33.17;22.10;;;12.30;99.90;;;;;;4944421;29;20469;-71
2022/05/06 00:42:58;;;;;;;34.27;23.00;;;12.30;99.90;;;;;;4944910;28;21028;-70
2022/05/06 00:45:31;;;;;;;35.80;24.10;;;12.30;99.90;;;;;;4934676;29;20185;-71
2022/05/06 00:47:57;;;;;;;45.27;24.00;;;12.30;99.90;;;;;;4950996;29;20424;-71
2022/05/06 00:50:22;;;;;;;36.67;23.03;;;12.30;99.90;;;;;;4920782;29;20434;-71
2022/05/06 00:52:48;;;;;;;36.83;25.90;;;12.30;99.90;;;;;;4943834;28;20703;-72
2022/05/06 00:55:13;;;;;;;37.77;25.47;;;12.20;99.90;;;;;;4936054;29;20185;-73
2022/05/06 00:57:39;;;;;;;45.30;24.67;;;12.20;99.90;;;;;;4944616;28;20739;-71
2022/05/06 02:33:34;;;;;;;35.53;22.27;;;12.00;99.90;;;;;;4939480;29;21008;-71
2022/05/06 02:36:00;;;;;;;38.60;22.77;;;12.00;99.90;;;;;;4941565;28;20425;-72
2022/05/06 02:38:27;;;;;;;42.40;21.70;;;12.00;99.90;;;;;;4941177;29;20239;-71
2022/05/06 02:40:53;;;;;;;38.43;21.70;;;12.00;99.90;;;;;;4943010;29;20260;-73
2022/05/06 02:43:18;;;;;;;31.13;21.50;;;12.00;99.90;;;;;;4942952;29;20485;-72
2022/05/06 02:45:44;;;;;;;34.33;22.57;;;12.00;99.90;;;;;;4942822;28;20694;-73
2022/05/06 02:48:10;;;;;;;35.47;22.37;;;12.00;99.90;;;;;;4942260;29;20256;-74
2022/05/06 02:50:36;;;;;;;39.03;23.43;;;11.90;99.90;;;;;;4942708;29;20559;-72
2022/05/06 02:53:03;;;;;;;30.57;21.93;;;12.00;99.90;;;;;;4943104;28;20224;-73
2022/05/06 02:55:29;;;;;;;40.60;22.93;;;11.90;99.90;;;;;;4942538;29;20417;-73
2022/05/06 02:57:55;;;;;;;39.50;23.17;;;11.90;99.90;;;;;;4942844;29;20478;-73
2022/05/06 03:00:20;;;;;;;28.97;22.20;;;11.90;99.90;;;;;;4942109;28;20912;-73
2022/05/06 03:02:46;;;;;;;34.13;21.07;;;11.90;99.90;;;;;;4942822;28;20200;-73
2022/05/06 03:05:12;;;;;;;28.73;21.57;;;11.90;99.90;;;;;;4942591;29;20185;-74
2022/05/06 03:07:39;;;;;;;34.57;21.30;;;11.90;99.90;;;;;;4942402;29;20448;-73
2022/05/06 03:10:05;;;;;;;38.50;21.60;;;11.90;99.90;;;;;;4943616;28;20436;-72
2022/05/06 03:12:31;;;;;;;33.77;21.67;;;11.80;99.90;;;;;;4941954;29;20449;-73
2022/05/06 03:14:58;;;;;;;32.30;22.43;;;11.90;99.90;;;;;;4944968;29;20467;-73
2022/05/06 03:17:24;;;;;;;34.47;23.03;;;11.90;99.90;;;;;;4943532;29;20275;-75
2022/05/06 03:19:49;;;;;;;33.47;22.60;;;11.90;99.90;;;;;;4943941;29;20821;-73
2022/05/06 03:22:16;;;;;;;28.60;20.10;;;11.90;99.90;;;;;;4941746;28;20216;-72
2022/05/06 03:24:43;;;;;;;32.67;20.20;;;11.90;99.90;;;;;;4942569;28;20180;-72
2022/05/06 03:27:59;;;;;;;32.57;22.47;;;11.90;99.90;;;;;;4941520;28;20421;-72
2022/05/06 03:29:54;;;;;;;31.67;21.17;;;11.90;99.90;;;;;;4942166;29;20408;-73
2022/05/06 03:32:19;;;;;;;29.40;20.77;;;11.90;99.90;;;;;;4941292;28;20463;-70
2022/05/06 03:34:45;;;;;;;31.53;20.63;;;11.90;99.90;;;;;;4942245;29;20197;-71
2022/05/06 03:37:10;;;;;;;35.67;22.10;;;11.80;99.90;;;;;;4940425;29;20600;-71
2022/05/06 03:39:36;;;;;;;30.30;20.03;;;11.80;99.90;;;;;;4940655;29;20258;-71
2022/05/06 03:42:02;;;;;;;30.30;21.17;;;11.80;99.90;;;;;;4940887;29;20226;-71
2022/05/06 03:44:27;;;;;;;34.90;21.37;;;11.90;99.90;;;;;;4942211;28;20236;-72
2022/05/06 03:46:53;;;;;;;29.63;20.73;;;11.90;99.90;;;;;;4942727;28;20631;-72
2022/05/06 03:49:18;;;;;;;27.40;20.00;;;11.90;99.90;;;;;;4942206;29;20280;-72
2022/05/06 03:51:47;;;;;;;25.47;18.80;;;11.90;99.90;;;;;;4942005;28;20731;-74
2022/05/06 03:54:13;;;;;;;32.93;21.13;;;11.90;99.90;;;;;;4942606;28;20195;-73
2022/05/06 03:56:39;;;;;;;28.10;20.50;;;11.90;99.90;;;;;;4941630;29;20398;-72
2022/05/06 03:59:04;;;;;;;27.43;20.10;;;11.90;99.90;;;;;;4942646;28;20425;-72
2022/05/06 04:01:30;;;;;;;27.53;18.67;;;11.90;99.90;;;;;;4940821;29;20620;-72
2022/05/06 04:03:56;;;;;;;31.40;20.83;;;11.90;99.90;;;;;;4941784;28;20177;-73
2022/05/06 04:06:21;;;;;;;33.13;20.13;;;11.90;99.90;;;;;;4941701;29;20418;-72
2022/05/06 04:08:47;;;;;;;32.03;22.50;;;11.90;99.90;;;;;;4942241;28;20177;-71
2022/05/06 04:11:13;;;;;;;26.60;19.40;;;12.00;99.90;;;;;;4940403;28;20208;-72
2022/05/06 04:13:39;;;;;;;25.40;19.03;;;12.00;99.90;;;;;;4942159;29;20642;-72
2022/05/06 04:16:05;;;;;;;33.07;19.70;;;12.00;99.90;;;;;;4941795;28;20465;-70
2022/05/06 04:18:31;;;;;;;28.23;20.27;;;11.90;99.90;;;;;;4941430;29;20421;-70
2022/05/06 04:23:41;;;;;;;26.33;20.27;;;11.90;99.90;;;;;;4942486;29;20425;-70
2022/05/06 04:26:11;;;;;;;29.87;20.47;;;11.90;99.90;;;;;;4942628;28;20455;-70
2022/05/06 04:28:37;;;;;;;28.00;19.03;;;11.90;99.90;;;;;;4942351;29;20788;-70
2022/05/06 04:31:03;;;;;;;32.50;19.20;;;11.90;99.90;;;;;;4941088;29;20964;-71
2022/05/06 04:33:29;;;;;;;33.40;19.37;;;11.80;99.90;;;;;;4941390;29;20428;-71
2022/05/06 04:35:56;;;;;;;29.23;19.10;;;11.80;99.90;;;;;;4942121;29;20797;-70
2022/05/06 04:38:28;;;;;;;23.90;19.13;;;11.80;99.90;;;;;;4941220;28;20731;-69
2022/05/06 04:41:01;;;;;;;32.37;19.70;;;11.70;99.90;;;;;;4941481;29;20883;-70
2022/05/06 04:43:27;;;;;;;24.13;18.57;;;11.70;99.90;;;;;;4941724;29;21145;-70
2022/05/06 04:45:53;;;;;;;30.47;19.17;;;11.70;99.90;;;;;;4942158;29;20416;-70
2022/05/06 04:48:19;;;;;;;27.07;18.87;;;11.70;99.90;;;;;;4944510;28;20420;-70
2022/05/06 04:50:45;;;;;;;29.10;20.40;;;11.60;99.90;;;;;;4944106;29;20472;-70
2022/05/06 04:53:12;;;;;;;26.50;18.37;;;11.60;99.90;;;;;;4944069;29;20446;-70
2022/05/06 04:55:39;;;;;;;30.40;19.40;;;11.60;99.90;;;;;;4945555;29;20443;-70
2022/05/06 04:58:06;;;;;;;28.73;20.03;;;11.70;99.90;;;;;;4944759;29;20497;-72
2022/05/06 05:00:32;;;;;;;31.13;20.47;;;11.70;99.90;;;;;;4943546;29;20503;-69
2022/05/06 05:02:59;;;;;;;26.20;19.40;;;11.70;99.90;;;;;;4944871;29;20425;-72
2022/05/06 05:05:24;;;;;;;27.30;20.03;;;11.60;99.90;;;;;;4945381;29;20963;-73
2022/05/06 05:07:51;;;;;;;25.37;20.20;;;11.70;99.90;;;;;;4944872;29;20468;-73
2022/05/06 05:10:17;;;;;;;28.27;20.43;;;11.70;99.90;;;;;;4945100;29;20184;-72
2022/05/06 05:12:42;;;;;;;28.73;20.23;;;11.60;99.90;;;;;;4945432;29;20538;-72
2022/05/06 05:15:09;;;;;;;32.40;19.70;;;11.60;99.90;;;;;;4944480;29;20682;-72
2022/05/06 05:17:34;;;;;;;29.67;18.50;;;11.60;99.90;;;;;;4944687;29;20644;-72
2022/05/06 05:20:00;;;;;;;31.30;19.07;;;11.60;99.90;;;;;;4945296;28;20440;-72
2022/05/06 05:22:26;;;;;;;28.93;19.93;;;11.60;99.90;;;;;;4944241;28;20238;-73
2022/05/06 05:24:51;;;;;;;23.53;19.03;;;11.60;99.90;;;;;;4944912;29;20564;-72
2022/05/06 05:27:17;;;;;;;32.70;20.37;;;11.60;99.90;;;;;;4943889;29;20176;-73
2022/05/06 05:29:43;;;;;;;23.47;20.20;;;11.60;99.90;;;;;;4944670;28;20212;-73
2022/05/06 05:32:10;;;;;;;37.10;19.90;;;11.70;99.90;;;;;;4943348;29;20900;-73
2022/05/06 05:34:36;;;;;;;27.40;19.37;;;11.60;99.90;;;;;;4943820;29;20191;-74
2022/05/06 05:37:01;;;;;;;30.43;21.60;;;11.60;99.90;;;;;;4945167;29;20823;-71
2022/05/06 05:39:27;;;;;;;25.33;19.20;;;11.60;99.90;;;;;;4944176;29;20549;-74
2022/05/06 05:41:53;;;;;;;26.10;19.37;;;11.60;99.90;;;;;;4944583;29;20298;-73
2022/05/06 05:49:47;;;;;;;32.63;20.43;;;11.60;99.90;;;;;;4944838;29;20471;-73
2022/05/06 05:52:12;;;;;;;31.90;20.07;;;11.60;99.90;;;;;;4942235;29;20452;-72
2022/05/06 05:54:38;;;;;;;27.10;20.03;;;11.60;99.90;;;;;;4943349;29;20188;-73
2022/05/06 05:57:05;;;;;;;26.60;19.53;;;11.60;99.90;;;;;;4944499;28;20188;-73
2022/05/06 05:59:30;;;;;;;32.90;20.67;;;11.60;99.90;;;;;;4943236;29;20796;-73
2022/05/06 06:01:56;;;;;;;29.90;20.87;;;11.50;99.90;;;;;;4943851;28;20473;-75
2022/05/06 06:04:21;;;;;;;29.50;19.47;;;11.50;99.90;;;;;;4943491;29;20649;-73
2022/05/06 06:06:47;;;;;;;27.97;20.97;;;11.50;99.90;;;;;;4944011;28;20185;-73
2022/05/06 06:09:14;;;;;;;32.57;21.53;;;11.50;99.90;;;;;;4943089;29;20555;-73
2022/05/06 06:11:39;;;;;;;26.90;20.73;;;11.50;99.90;;;;;;4943481;28;20740;-73
2022/05/06 06:14:05;;;;;;;33.57;20.90;;;11.50;99.90;;;;;;4943487;28;20435;-72
2022/05/06 06:16:31;;;;;;;25.40;19.40;;;11.60;99.90;;;;;;4943360;29;20398;-73
2022/05/06 06:18:58;;;;;;;32.93;20.63;;;11.50;99.90;;;;;;4942517;29;20571;-73
2022/05/06 06:21:24;;;;;;;28.97;21.33;;;11.50;99.90;;;;;;4940370;28;20223;-73
2022/05/06 06:23:50;;;;;;;30.70;21.87;;;11.50;99.90;;;;;;4941977;28;20432;-73
2022/05/06 06:26:15;;;;;;;25.67;20.50;;;11.50;99.90;;;;;;4942773;29;20831;-72
2022/05/06 06:28:41;;;;;;;28.07;19.97;;;11.50;99.90;;;;;;4943037;28;20184;-73
2022/05/06 06:31:06;;;;;;;30.97;20.70;;;11.60;99.90;;;;;;4943546;28;20578;-73
2022/05/06 06:33:37;;;;;;;29.67;21.03;;;11.60;99.90;;;;;;4942430;29;20308;-73
2022/05/06 06:36:03;;;;;;;29.27;20.60;;;11.70;99.90;;;;;;4944121;29;20187;-73
2022/05/06 06:38:29;;;;;;;35.30;22.03;;;11.70;99.90;;;;;;4942472;29;20431;-73
2022/05/06 06:40:54;;;;;;;29.70;20.87;;;11.70;99.90;;;;;;4944544;28;20498;-73
2022/05/06 06:43:20;;;;;;;30.97;22.23;;;11.70;99.90;;;;;;4944170;29;20204;-73
2022/05/06 06:45:45;;;;;;;36.97;22.80;;;11.70;99.90;;;;;;4944873;28;20250;-71
2022/05/06 06:48:11;;;;;;;36.90;24.10;;;11.80;99.90;;;;;;4942762;29;20668;-72
2022/05/06 06:50:39;;;;;;;34.47;21.10;;;11.80;99.90;;;;;;4943701;28;20186;-71
2022/05/06 06:53:05;;;;;;;36.67;23.10;;;11.90;99.90;;;;;;4942669;29;20599;-71
2022/05/06 06:55:30;;;;;;;30.43;20.83;;;11.80;99.90;;;;;;4941849;29;20499;-72
2022/05/06 06:57:56;;;;;;;35.97;21.83;;;11.80;99.90;;;;;;4940910;29;20424;-72
2022/05/06 07:00:21;;;;;;;30.87;21.27;;;11.90;99.90;;;;;;4940618;29;20196;-72
2022/05/06 07:02:47;;;;;;;26.80;20.93;;;11.90;99.90;;;;;;4941912;29;20211;-71
2022/05/06 07:05:12;;;;;;;31.87;20.50;;;12.00;99.90;;;;;;4942318;28;20264;-71
2022/05/06 07:13:06;;;;;;;31.50;19.30;;;12.00;99.90;;;;;;4944095;29;20424;-71
2022/05/06 07:15:32;;;;;;;23.83;18.47;;;12.10;99.90;;;;;;4942593;29;20432;-72
2022/05/06 07:17:58;;;;;;;24.10;16.40;;;12.10;99.90;;;;;;4943703;29;20219;-72
2022/05/06 07:20:24;;;;;;;20.63;15.83;;;12.10;99.90;;;;;;4941308;29;20471;-71
2022/05/06 07:22:50;;;;;;;23.60;16.30;;;12.10;99.90;;;;;;4942616;28;20430;-71
2022/05/06 07:25:15;;;;;;;23.67;15.53;;;12.20;99.90;;;;;;4939400;29;20188;-73
2022/05/06 07:27:41;;;;;;;24.53;14.40;;;12.20;99.90;;;;;;4942808;29;20215;-72
2022/05/06 07:30:08;;;;;;;17.10;13.37;;;12.20;99.90;;;;;;4942068;28;20189;-71
2022/05/06 07:32:34;;;;;;;14.37;12.60;;;12.30;99.90;;;;;;4938958;28;20236;-72
2022/05/06 07:35:01;;;;;;;18.30;12.40;;;12.20;99.90;;;;;;4939103;28;20444;-72
2022/05/06 07:37:33;;;;;;;15.83;12.40;;;12.30;99.90;;;;;;4941300;29;20184;-72
2022/05/06 07:40:02;;;;;;;16.30;12.23;;;12.30;99.90;;;;;;4941377;29;20415;-73
2022/05/06 07:42:31;;;;;;;16.20;11.27;;;12.40;99.90;;;;;;4941394;28;20478;-72
2022/05/06 07:45:01;;;;;;;14.57;11.87;;;12.50;99.90;;;;;;4940879;29;20427;-73
2022/05/06 07:47:26;;;;;;;17.57;10.73;;;12.60;99.90;;;;;;4942020;29;20421;-73
2022/05/06 07:49:52;;;;;;;12.60;11.00;;;12.70;99.90;;;;;;4941761;29;20417;-73
2022/05/06 07:52:18;;;;;;;13.97;12.00;;;12.80;99.90;;;;;;4942130;29;20217;-73
2022/05/06 07:54:43;;;;;;;15.33;10.50;;;12.90;99.90;;;;;;4941082;29;20594;-73
2022/05/06 07:57:09;;;;;;;15.63;12.37;;;13.00;99.90;;;;;;4942393;28;20263;-72
2022/05/06 07:59:34;;;;;;;18.80;10.73;;;13.10;99.90;;;;;;4942477;29;20189;-71
2022/05/06 08:04:48;;;;;;;14.70;10.87;;;13.20;99.90;;;;;;4943124;29;20236;-73
2022/05/06 08:07:15;;;;;;;11.60;10.40;;;13.30;99.90;;;;;;4943097;29;20480;-73
2022/05/06 08:09:40;;;;;;;12.20;10.10;;;13.30;99.90;;;;;;4941630;29;20416;-72
2022/05/06 08:12:06;;;;;;;16.30;11.47;;;13.40;99.90;;;;;;4940577;28;20447;-73
2022/05/06 08:14:32;;;;;;;14.50;10.80;;;13.40;99.90;;;;;;4940501;29;20181;-72
2022/05/06 08:16:59;;;;;;;12.60;10.03;;;13.50;99.90;;;;;;4941936;29;20425;-73
2022/05/06 08:19:25;;;;;;;12.23;10.07;;;13.40;99.90;;;;;;4942151;29;20267;-73
2022/05/06 08:21:51;;;;;;;11.33;10.13;;;13.50;99.90;;;;;;4941253;28;20627;-73
2022/05/06 08:24:17;;;;;;;13.57;9.87;;;13.60;99.90;;;;;;4948390;29;20181;-73
2022/05/06 08:26:43;;;;;;;12.00;9.30;;;13.60;99.90;;;;;;4945841;29;20417;-72
2022/05/06 08:29:08;;;;;;;15.30;10.27;;;13.60;99.90;;;;;;4945209;29;20446;-71
2022/05/06 08:31:37;;;;;;;16.00;10.37;;;13.70;99.90;;;;;;4945188;29;20236;-73
2022/05/06 08:34:06;;;;;;;14.47;10.63;;;13.70;99.90;;;;;;4945973;28;20185;-73
2022/05/06 08:36:32;;;;;;;11.23;9.90;;;13.70;99.90;;;;;;4946334;29;20786;-72
2022/05/06 08:38:57;;;;;;;12.80;9.60;;;13.80;99.90;;;;;;4944430;29;20515;-73
2022/05/06 08:41:24;;;;;;;15.33;9.53;;;13.80;99.90;;;;;;4945057;29;20213;-73
2022/05/06 08:43:50;;;;;;;22.13;9.13;;;13.80;99.90;;;;;;4944974;29;20584;-72
2022/05/06 08:51:48;;;;;;;12.60;9.53;;;14.10;99.90;;;;;;4944481;28;20417;-74
2022/05/06 08:54:16;;;;;;;9.53;8.20;;;14.20;99.90;;;;;;4945155;28;20417;-73
2022/05/06 08:56:41;;;;;;;13.30;10.40;;;14.20;99.90;;;;;;4944997;29;20423;-73
2022/05/06 08:59:08;;;;;;;9.00;8.20;;;14.30;99.90;;;;;;4944651;29;20650;-72
2022/05/06 09:01:33;;;;;;;11.00;9.73;;;14.30;99.90;;;;;;4944521;29;20217;-73
2022/05/06 09:03:59;;;;;;;13.00;8.07;;;14.40;99.90;;;;;;4945744;29;20432;-73
2022/05/06 09:06:26;;;;;;;9.73;8.77;;;14.50;99.90;;;;;;4936944;29;20207;-74
2022/05/06 09:08:55;;;;;;;14.30;8.80;;;14.50;99.90;;;;;;4935048;29;20561;-74
2022/05/06 09:12:40;;;;;;;9.23;8.20;;;14.50;99.90;;;;;;4933838;29;20963;-73
2022/05/06 09:14:14;;;;;;;13.70;9.40;;;14.60;99.90;;;;;;4936467;29;20433;-73
2022/05/06 09:16:40;;;;;;;14.57;8.07;;;14.60;99.90;;;;;;4937086;29;20512;-73
2022/05/06 09:19:09;;;;;;;11.83;7.50;;;14.80;99.90;;;;;;4936881;29;20492;-73
2022/05/06 09:21:36;;;;;;;10.47;8.37;;;14.80;99.90;;;;;;4936429;29;20213;-74
2022/05/06 09:24:20;;;;;;;8.43;7.47;;;14.90;99.90;;;;;;4935690;29;21001;-73
2022/05/06 09:27:13;;;;;;;10.23;8.60;;;14.90;99.90;;;;;;4936667;29;20420;-73
2022/05/06 09:29:41;;;;;;;9.57;8.60;;;14.90;99.90;;;;;;4938373;29;20420;-72
2022/05/06 09:32:23;;;;;;;12.00;9.13;;;15.00;99.90;;;;;;4937899;29;20467;-72
2022/05/06 09:35:04;;;;;;;9.93;7.80;;;15.10;99.90;;;;;;4936136;29;20481;-72
2022/05/06 09:37:38;;;;;;;13.80;7.93;;;15.10;99.90;;;;;;4936286;29;20460;-72
2022/05/06 09:40:16;;;;;;;13.63;8.23;;;15.20;99.90;;;;;;4936491;29;20926;-73
2022/05/06 09:42:46;;;;;;;9.60;7.70;;;15.20;99.90;;;;;;4936183;29;20475;-72
2022/05/06 09:45:13;;;;;;;8.30;7.60;;;15.50;99.90;;;;;;4936312;29;20414;-72
2022/05/06 09:47:40;;;;;;;11.97;7.87;;;15.70;99.90;;;;;;4937108;29;20437;-73
2022/05/06 09:50:07;;;;;;;14.10;8.27;;;15.90;99.90;;;;;;4936838;29;20859;-73
2022/05/06 09:52:34;;;;;;;11.13;6.40;;;16.70;99.90;;;;;;4936251;29;20447;-73
2022/05/06 09:55:00;;;;;;;9.60;6.43;;;17.70;99.90;;;;;;4936630;29;20509;-73
2022/05/06 09:57:26;;;;;;;15.47;6.00;;;18.50;99.90;;;;;;4936190;29;20496;-74
2022/05/06 09:59:52;;;;;;;9.40;6.23;;;19.10;99.90;;;;;;4936349;29;20961;-73
2022/05/06 10:02:18;;;;;;;11.10;7.10;;;19.10;99.90;;;;;;4935777;29;20205;-75
2022/05/06 10:04:44;;;;;;;10.13;7.17;;;19.00;99.90;;;;;;4934848;29;20450;-74
2022/05/06 10:07:15;;;;;;;12.80;6.47;;;18.80;99.90;;;;;;4935935;29;20792;-74
2022/05/06 10:09:53;;;;;;;10.70;6.73;;;18.80;99.90;;;;;;4935867;29;20413;-73
2022/05/06 10:12:20;;;;;;;10.70;7.47;;;18.80;99.90;;;;;;4935569;29;20476;-74
2022/05/06 10:14:46;;;;;;;7.20;6.50;;;18.90;99.90;;;;;;4936112;29;21003;-72
2022/05/06 10:17:12;;;;;;;7.87;6.67;;;19.10;99.90;;;;;;4935790;29;20418;-73
2022/05/06 10:19:37;;;;;;;7.77;6.40;;;19.60;99.90;;;;;;4935685;29;20932;-73
2022/05/06 10:22:03;;;;;;;9.10;6.03;;;19.60;99.90;;;;;;4935405;29;20256;-74
2022/05/06 10:24:53;;;;;;;9.60;6.30;;;19.50;99.90;;;;;;4935318;29;20595;-74
2022/05/06 10:33:17;;;;;;;7.83;5.70;;;19.70;99.90;;;;;;4935833;29;20862;-73
2022/05/06 10:35:45;;;;;;;10.57;5.90;;;20.00;99.90;;;;;;4935430;29;20409;-73
2022/05/06 10:38:25;;;;;;;11.47;5.63;;;20.00;99.90;;;;;;4935480;29;20173;-72
2022/05/06 10:40:58;;;;;;;11.40;6.23;;;19.80;99.90;;;;;;4934909;29;20471;-74
2022/05/06 10:43:43;;;;;;;10.17;6.57;;;19.50;99.90;;;;;;4935327;29;20789;-73
2022/05/06 10:46:08;;;;;;;6.73;5.83;;;19.80;99.90;;;;;;4934890;29;20445;-74
2022/05/06 10:48:34;;;;;;;5.40;4.90;;;20.50;99.90;;;;;;4934088;29;20870;-73
2022/05/06 10:51:22;;;;;;;11.53;6.43;;;21.00;99.90;;;;;;4934886;29;20682;-74
2022/05/06 10:53:48;;;;;;;4.90;4.50;;;21.20;99.90;;;;;;4934964;29;20216;-73
2022/05/06 10:56:14;;;;;;;12.50;7.33;;;21.10;99.90;;;;;;4934697;29;20449;-74
2022/05/06 10:58:40;;;;;;;10.70;5.60;;;21.20;99.90;;;;;;4931115;29;20185;-73
2022/05/06 11:01:06;;;;;;;6.23;5.63;;;21.00;99.90;;;;;;4940849;29;20471;-73
2022/05/06 11:03:32;;;;;;;6.47;5.40;;;20.70;99.90;;;;;;4942586;29;20779;-74
2022/05/06 11:05:57;;;;;;;8.30;5.50;;;20.70;99.90;;;;;;4943042;29;20192;-74
2022/05/06 11:08:33;;;;;;;6.37;4.73;;;20.50;99.90;;;;;;4942988;29;20208;-74
2022/05/06 11:10:59;;;;;;;5.37;4.90;;;20.50;99.90;;;;;;4942339;29;20673;-70
2022/05/06 11:13:25;;;;;;;7.07;5.37;;;20.70;99.90;;;;;;4941731;28;20421;-72
2022/05/06 11:15:52;;;;;;;5.43;4.60;;;20.80;99.90;;;;;;4942495;28;20208;-72
2022/05/06 11:18:19;;;;;;;6.20;5.60;;;20.90;99.90;;;;;;4934742;28;20481;-73
2022/05/06 11:20:44;;;;;;;6.83;4.57;;;20.70;99.90;;;;;;4929850;29;20453;-72
2022/05/06 11:23:13;;;;;;;10.37;5.63;;;20.50;99.90;;;;;;4933327;29;20421;-72
2022/05/06 11:25:50;;;;;;;6.63;4.70;;;20.50;99.90;;;;;;4933925;29;20197;-71
2022/05/06 11:28:20;;;;;;;7.03;5.10;;;20.60;99.90;;;;;;4934238;29;20412;-72
2022/05/06 11:30:48;;;;;;;5.90;5.30;;;20.50;99.90;;;;;;4934060;29;20922;-72
2022/05/06 11:33:24;;;;;;;7.40;4.57;;;20.50;99.90;;;;;;4934329;29;20501;-71
2022/05/06 11:35:52;;;;;;;4.97;4.43;;;20.20;99.90;;;;;;4933705;29;20459;-71
2022/05/06 11:38:30;;;;;;;5.23;4.50;;;20.40;99.90;;;;;;4932854;29;20740;-72
2022/05/06 11:41:08;;;;;;;8.00;5.20;;;20.60;99.90;;;;;;4933558;29;20457;-72
2022/05/06 11:43:34;;;;;;;5.73;4.97;;;20.70;99.90;;;;;;4937775;29;20452;-72
2022/05/06 11:48:46;;;;;;;6.50;5.27;;;20.80;99.90;;;;;;4934783;29;20271;-72
2022/05/06 11:51:19;;;;;;;8.43;6.00;;;20.90;99.90;;;;;;4932857;29;20440;-71
2022/05/06 11:53:45;;;;;;;7.73;4.97;;;20.70;99.90;;;;;;4929786;29;20438;-72
2022/05/06 11:56:11;;;;;;;8.40;6.10;;;20.50;99.90;;;;;;4929919;29;20413;-72
2022/05/06 11:58:37;;;;;;;5.30;4.70;;;20.20;99.90;;;;;;4932289;29;20448;-72
2022/05/06 12:01:03;;;;;;;9.10;5.40;;;20.10;99.90;;;;;;4931985;29;20317;-71
2022/05/06 12:03:29;;;;;;;5.47;4.93;;;19.90;99.90;;;;;;4933312;29;20859;-73
2022/05/06 12:06:08;;;;;;;10.43;5.20;;;19.70;99.90;;;;;;4936175;29;20260;-72
2022/05/06 12:08:36;;;;;;;7.90;5.07;;;19.40;99.90;;;;;;4934415;29;20252;-73
2022/05/06 12:11:04;;;;;;;11.63;5.13;;;19.40;99.90;;;;;;4933581;29;20580;-71
2022/05/06 12:13:32;;;;;;;7.70;5.30;;;19.50;99.90;;;;;;4934116;29;20863;-73
2022/05/06 12:16:05;;;;;;;13.43;6.40;;;19.60;99.90;;;;;;4936596;29;20414;-72
2022/05/06 12:18:30;;;;;;;4.50;4.10;;;19.60;99.90;;;;;;4933648;29;20413;-73
2022/05/06 12:20:56;;;;;;;6.23;5.30;;;19.90;99.90;;;;;;4933540;29;20479;-72
2022/05/06 12:23:29;;;;;;;6.60;4.60;;;20.10;99.90;;;;;;4933573;29;20217;-72
2022/05/06 12:25:56;;;;;;;5.83;5.17;;;20.10;99.90;;;;;;4933351;29;20333;-72
2022/05/06 12:28:23;;;;;;;7.07;3.67;;;20.00;99.90;;;;;;4933990;29;20433;-72
2022/05/06 12:30:59;;;;;;;6.37;5.13;;;20.00;99.90;;;;;;4933801;29;20449;-73
2022/05/06 12:33:37;;;;;;;6.83;5.57;;;20.00;99.90;;;;;;4933514;29;20425;-73
2022/05/06 12:36:08;;;;;;;5.40;4.80;;;20.00;99.90;;;;;;4933676;29;20448;-72
2022/05/06 12:38:39;;;;;;;6.60;4.77;;;20.00;99.90;;;;;;4933418;29;20423;-72
2022/05/06 12:41:23;;;;;;;10.53;4.37;;;20.00;99.90;;;;;;4933275;29;20460;-72
2022/05/06 12:43:50;;;;;;;7.17;5.90;;;20.10;99.90;;;;;;4933534;29;20415;-72
2022/05/06 12:46:26;;;;;;;5.10;4.70;;;20.30;99.90;;;;;;4933247;29;20449;-72
2022/05/06 12:51:39;;;;;;;10.97;6.50;;;20.00;99.90;;;;;;4933315;29;20440;-72
2022/05/06 12:54:04;;;;;;;5.60;4.70;;;19.90;99.90;;;;;;4933427;29;20495;-72
2022/05/06 12:56:30;;;;;;;5.10;4.70;;;20.00;99.90;;;;;;4933296;29;20421;-73
2022/05/06 12:58:55;;;;;;;7.70;3.60;;;20.00;99.90;;;;;;4933494;29;20181;-73
2022/05/06 13:01:22;;;;;;;5.97;5.33;;;20.00;99.90;;;;;;4932778;29;20213;-72
2022/05/06 13:03:47;;;;;;;4.50;4.10;;;20.10;99.90;;;;;;4933477;29;20173;-72
2022/05/06 13:06:13;;;;;;;5.00;4.60;;;20.10;99.90;;;;;;4932912;29;20464;-72
2022/05/06 13:08:38;;;;;;;7.43;5.03;;;20.20;99.90;;;;;;4933967;29;20550;-71
2022/05/06 13:11:04;;;;;;;5.60;5.10;;;20.10;99.90;;;;;;4936224;29;20201;-72
2022/05/06 13:13:29;;;;;;;13.60;6.00;;;20.10;99.90;;;;;;4936565;29;20188;-72
2022/05/06 13:15:56;;;;;;;16.43;5.43;;;20.10;99.90;;;;;;4936322;29;20209;-72
2022/05/06 13:18:22;;;;;;;5.20;4.70;;;19.90;99.90;;;;;;4936199;29;20260;-73
2022/05/06 13:20:47;;;;;;;9.83;5.93;;;20.00;99.90;;;;;;4935946;29;20510;-72
2022/05/06 13:23:13;;;;;;;5.60;4.67;;;20.00;99.90;;;;;;4936397;29;20217;-71
2022/05/06 13:25:38;;;;;;;9.60;5.30;;;20.00;99.90;;;;;;4936105;29;20585;-72
2022/05/06 13:28:04;;;;;;;5.23;4.73;;;20.10;99.90;;;;;;4936269;29;20249;-72
2022/05/06 13:30:29;;;;;;;7.80;5.30;;;20.20;99.90;;;;;;4936366;29;20206;-72
2022/05/06 13:32:55;;;;;;;8.40;4.60;;;20.30;99.90;;;;;;4936044;29;20710;-72
2022/05/06 13:35:20;;;;;;;6.83;4.97;;;20.10;99.90;;;;;;4935782;29;20178;-72
2022/05/06 13:37:46;;;;;;;5.50;5.00;;;20.10;99.90;;;;;;4936236;29;20174;-72
2022/05/06 13:40:11;;;;;;;6.50;5.13;;;20.10;99.90;;;;;;4936203;29;20213;-72
2022/05/06 13:42:37;;;;;;;6.93;5.10;;;20.10;99.90;;;;;;4935974;29;20213;-72
2022/05/06 13:45:03;;;;;;;9.20;5.90;;;20.10;99.90;;;;;;4936108;29;20229;-73
2022/05/06 13:47:30;;;;;;;6.63;5.40;;;20.00;99.90;;;;;;4935972;29;20564;-72
2022/05/06 13:49:56;;;;;;;5.27;4.60;;;19.90;99.90;;;;;;4935931;29;20441;-73
2022/05/06 13:52:21;;;;;;;5.93;5.03;;;19.80;99.90;;;;;;4935934;29;20476;-72
2022/05/06 13:54:47;;;;;;;6.03;5.00;;;19.90;99.90;;;;;;4935825;29;20185;-72
2022/05/06 13:59:57;;;;;;;8.13;4.47;;;19.80;99.90;;;;;;4935893;29;20236;-73
2022/05/06 14:02:22;;;;;;;6.50;5.20;;;19.70;99.90;;;;;;4935325;29;20456;-73
2022/05/06 14:04:48;;;;;;;6.53;4.80;;;19.70;99.90;;;;;;4935578;29;20173;-72
2022/05/06 14:07:13;;;;;;;6.07;4.70;;;19.80;99.90;;;;;;4935666;29;20257;-71
2022/05/06 14:09:39;;;;;;;5.50;4.70;;;19.90;99.90;;;;;;4935651;29;20287;-72
2022/05/06 14:12:05;;;;;;;7.27;5.40;;;19.80;99.90;;;;;;4935256;29;20208;-71
2022/05/06 14:14:30;;;;;;;7.33;4.67;;;19.60;99.90;;;;;;4950037;29;20190;-72
2022/05/06 14:16:55;;;;;;;6.60;4.87;;;19.40;99.90;;;;;;4935496;29;20177;-73
2022/05/06 14:19:21;;;;;;;6.33;5.73;;;19.40;99.90;;;;;;4933444;29;20650;-72
2022/05/06 14:21:46;;;;;;;6.13;4.90;;;19.50;99.90;;;;;;4935328;29;20224;-73
2022/05/06 14:24:13;;;;;;;5.90;5.30;;;19.60;99.90;;;;;;4935276;29;20208;-72
2022/05/06 14:26:39;;;;;;;4.60;4.30;;;19.60;99.90;;;;;;4936689;29;20170;-73
2022/05/06 14:29:05;;;;;;;7.70;5.57;;;19.60;99.90;;;;;;4934059;29;20988;-72
2022/05/06 14:31:31;;;;;;;8.20;5.03;;;19.60;99.90;;;;;;4934805;29;20969;-72
2022/05/06 14:33:56;;;;;;;6.20;5.60;;;19.50;99.90;;;;;;4935298;29;20177;-72
2022/05/06 14:36:22;;;;;;;4.60;4.20;;;19.40;99.90;;;;;;4934880;29;20200;-72
2022/05/06 14:38:48;;;;;;;7.03;4.97;;;19.50;99.90;;;;;;4935126;29;20256;-72
2022/05/06 14:41:15;;;;;;;5.40;4.77;;;19.50;99.90;;;;;;4934773;29;20556;-72
2022/05/06 14:43:40;;;;;;;7.40;4.70;;;19.50;99.90;;;;;;4935195;29;20548;-73
2022/05/06 14:46:08;;;;;;;6.33;5.60;;;19.40;99.90;;;;;;4934727;29;20512;-73